Time;durP1;ratioP1;P1;durP2;ratioP2;P2;SDS_P1;SDS_P2;PMS_P1;PMS_P2;Temp;Humidity;BMP_temperature;BMP_pressure;BME280_temperature;BME280_humidity;BME280_pressure;Samples;Min_cycle;Max_cycle;Signal;HPM_P1;HPM_P2
2022/03/14 00:00:10;;;;;;;23.30;14.52;;;;;;;15.64;27.35;99583.66;341697;28;1634;-67
2022/03/14 00:00:24;;;;;;;24.35;14.57;;;;;;;15.61;27.26;99581.19;341342;28;1489;-67
2022/03/14 00:00:37;;;;;;;22.35;13.98;;;;;;;15.58;27.38;99590.06;340894;29;1339;-66
2022/03/14 00:00:49;;;;;;;21.73;13.50;;;;;;;15.60;27.33;99582.13;341465;28;1509;-67
2022/03/14 00:01:05;;;;;;;22.40;13.77;;;;;;;15.57;27.53;99580.50;342324;28;1096;-66
2022/03/14 00:01:20;;;;;;;21.90;14.27;;;;;;;15.62;27.42;99580.28;343419;28;1164;-67
2022/03/14 00:01:36;;;;;;;20.75;13.98;;;;;;;15.57;27.76;99593.59;340411;28;1677;-67
2022/03/14 00:01:50;;;;;;;21.88;14.75;;;;;;;15.64;27.29;99583.66;342941;28;1091;-66
2022/03/14 00:02:02;;;;;;;22.05;14.40;;;;;;;15.61;27.68;99586.44;342396;28;1962;-66
2022/03/14 00:02:15;;;;;;;21.75;13.93;;;;;;;15.56;27.81;99592.78;343859;28;1074;-67
2022/03/14 00:02:27;;;;;;;22.50;14.07;;;;;;;15.58;27.69;99590.06;343624;28;1573;-66
2022/03/14 00:02:40;;;;;;;22.63;14.20;;;;;;;15.58;27.50;99596.16;343558;28;1290;-66
2022/03/14 00:02:52;;;;;;;23.67;14.40;;;;;;;15.51;27.81;99589.56;342332;28;1214;-66
2022/03/14 00:03:04;;;;;;;23.52;14.38;;;;;;;15.56;27.93;99597.19;342285;28;1201;-66
2022/03/14 00:03:16;;;;;;;23.15;14.57;;;;;;;15.54;27.84;99594.63;342260;28;1031;-66
2022/03/14 00:03:32;;;;;;;21.90;14.15;;;;;;;15.50;27.88;99600.97;342064;28;1668;-66
2022/03/14 00:04:18;;;;;;;23.45;14.43;;;;;;;15.50;28.00;99603.59;343534;28;1978;-65
2022/03/14 00:04:22;;;;;;;23.48;13.95;;;;;;;15.42;28.04;99600.53;342797;28;1551;-66
2022/03/14 00:04:38;;;;;;;24.13;14.40;;;;;;;15.47;27.96;99598.50;343638;28;1039;-66
2022/03/14 00:04:50;;;;;;;23.45;15.00;;;;;;;15.53;27.86;99603.44;343864;28;1539;-66
2022/03/14 00:05:06;;;;;;;22.13;14.55;;;;;;;15.47;28.04;99603.72;344103;28;2033;-66
2022/03/14 00:05:18;;;;;;;22.25;14.13;;;;;;;15.44;28.07;99603.91;343745;28;1760;-65
2022/03/14 00:05:31;;;;;;;22.38;14.10;;;;;;;15.44;28.14;99606.53;342991;28;1443;-65
2022/03/14 00:05:44;;;;;;;22.10;13.98;;;;;;;15.58;27.90;99601.41;343409;28;1538;-65
2022/03/14 00:05:56;;;;;;;22.25;13.77;;;;;;;15.54;27.63;99612.97;343569;28;1042;-65
2022/03/14 00:06:12;;;;;;;22.65;13.65;;;;;;;15.49;27.55;99612.38;342309;28;2093;-65
2022/03/14 00:06:27;;;;;;;22.10;13.68;;;;;;;15.45;27.81;99617.84;342350;28;1442;-65
2022/03/14 00:06:39;;;;;;;20.67;13.10;;;;;;;15.22;28.02;99613.84;342134;28;1107;-65
2022/03/14 00:06:55;;;;;;;21.08;12.73;;;;;;;15.32;27.79;99608.03;342603;28;1475;-65
2022/03/14 00:07:11;;;;;;;23.52;12.95;;;;;;;15.30;27.83;99611.66;342216;28;1452;-65
2022/03/14 00:07:23;;;;;;;20.77;13.15;;;;;;;15.34;27.89;99615.81;342003;28;1615;-65
2022/03/14 00:07:39;;;;;;;19.13;12.98;;;;;;;15.31;27.86;99613.34;343245;28;2229;-65
2022/03/14 00:07:51;;;;;;;20.77;12.80;;;;;;;15.43;27.67;99607.44;342620;28;1107;-65
2022/03/14 00:08:03;;;;;;;21.73;12.77;;;;;;;15.36;27.77;99616.56;341855;28;1068;-66
2022/03/14 00:08:15;;;;;;;22.48;13.30;;;;;;;15.43;27.67;99617.94;341910;28;1163;-65
2022/03/14 00:08:31;;;;;;;20.50;13.48;;;;;;;15.48;27.36;99615.09;343133;28;1553;-65
2022/03/14 00:08:45;;;;;;;20.60;13.27;;;;;;;15.46;27.47;99612.53;343584;28;1075;-65
2022/03/14 00:09:06;;;;;;;23.58;13.45;;;;;;;15.53;27.49;99619.16;343434;28;2029;-65
2022/03/14 00:09:18;;;;;;;27.10;13.90;;;;;;;15.58;27.46;99617.13;343662;28;1755;-65
2022/03/14 00:09:30;;;;;;;24.20;14.07;;;;;;;15.51;27.40;99615.78;343714;28;1760;-66
2022/03/14 00:09:42;;;;;;;24.38;14.55;;;;;;;15.56;27.42;99618.13;345362;28;1134;-66
2022/03/14 00:09:54;;;;;;;25.13;15.60;;;;;;;15.61;27.45;99616.09;344964;28;1074;-66
2022/03/14 00:10:07;;;;;;;25.50;15.20;;;;;;;15.67;27.43;99607.06;344022;28;1272;-65
2022/03/14 00:10:19;;;;;;;24.95;14.98;;;;;;;15.67;27.53;99613.13;343611;28;1257;-66
2022/03/14 00:10:34;;;;;;;23.75;14.57;;;;;;;15.66;27.34;99608.84;343658;28;1074;-66
2022/03/14 00:10:49;;;;;;;22.95;14.45;;;;;;;15.65;27.40;99616.78;342970;28;1712;-65
2022/03/14 00:11:01;;;;;;;22.88;14.60;;;;;;;15.62;27.42;99609.94;343570;28;1072;-66
2022/03/14 00:11:15;;;;;;;22.65;14.43;;;;;;;15.60;27.49;99616.19;343732;28;1206;-66
2022/03/14 00:11:27;;;;;;;23.08;14.10;;;;;;;15.51;27.75;99613.16;343592;28;1549;-65
2022/03/14 00:11:39;;;;;;;24.00;14.18;;;;;;;15.52;27.63;99612.22;342858;28;1839;-66
2022/03/14 00:11:52;;;;;;;23.98;14.57;;;;;;;15.49;27.71;99617.63;343193;28;2171;-66
2022/03/14 00:12:05;;;;;;;23.90;14.77;;;;;;;15.49;27.77;99617.63;342168;28;1531;-66
2022/03/14 00:12:23;;;;;;;23.95;14.45;;;;;;;15.47;27.78;99616.84;343622;28;1660;-65
2022/03/14 00:12:36;;;;;;;23.25;13.98;;;;;;;15.41;27.94;99614.53;342349;28;1056;-66
2022/03/14 00:12:55;;;;;;;21.45;14.20;;;;;;;15.41;27.99;99617.16;342323;28;1546;-66
2022/03/14 00:13:09;;;;;;;21.45;14.10;;;;;;;15.46;27.82;99619.56;343561;28;1055;-66
2022/03/14 00:13:21;;;;;;;21.52;13.93;;;;;;;15.52;27.71;99617.44;343672;28;1232;-66
2022/03/14 00:13:33;;;;;;;22.25;14.43;;;;;;;15.57;27.74;99615.44;343442;28;1097;-65
2022/03/14 00:13:50;;;;;;;22.17;14.35;;;;;;;15.57;27.75;99614.56;342276;28;1548;-65
2022/03/14 00:14:06;;;;;;;21.55;13.93;;;;;;;15.65;27.58;99616.78;343539;28;1878;-66
2022/03/14 00:14:19;;;;;;;21.50;13.98;;;;;;;15.72;27.28;99621.66;343110;28;1768;-66
2022/03/14 00:14:31;;;;;;;22.55;14.10;;;;;;;15.74;27.03;99627.66;342336;28;1054;-66
2022/03/14 00:14:43;;;;;;;23.38;14.25;;;;;;;15.71;27.23;99626.94;342220;28;1050;-66
2022/03/14 00:14:56;;;;;;;22.90;14.48;;;;;;;15.77;27.11;99624.00;342333;28;1308;-66
2022/03/14 00:15:13;;;;;;;22.90;14.48;;;;;;;15.85;27.00;99621.81;343434;28;1144;-66
2022/03/14 00:15:30;;;;;;;23.98;14.70;;;;;;;15.83;27.10;99618.44;343601;28;1323;-66
2022/03/14 00:15:42;;;;;;;22.90;14.65;;;;;;;15.82;27.29;99622.00;342218;28;1096;-66
2022/03/14 00:15:55;;;;;;;23.30;14.88;;;;;;;15.81;27.21;99627.31;343394;28;1468;-66
2022/03/14 00:16:08;;;;;;;23.60;15.05;;;;;;;15.84;27.15;99621.91;343155;28;1525;-66
2022/03/14 00:16:25;;;;;;;23.67;14.38;;;;;;;15.85;27.14;99629.66;345110;28;826;-66
2022/03/14 00:16:45;;;;;;;23.63;14.32;;;;;;;15.91;27.15;99629.34;342759;28;1123;-66
2022/03/14 00:17:02;;;;;;;22.08;14.35;;;;;;;15.80;27.24;99630.88;342189;28;1019;-66
2022/03/14 00:17:15;;;;;;;22.90;14.57;;;;;;;15.64;27.27;99638.69;342424;28;1022;-66
2022/03/14 00:17:28;;;;;;;24.17;14.73;;;;;;;15.68;27.02;99632.34;343002;28;1185;-66
2022/03/14 00:17:43;;;;;;;22.42;14.15;;;;;;;15.65;27.35;99632.50;343303;28;1682;-66
2022/03/14 00:17:56;;;;;;;21.30;13.45;;;;;;;15.58;27.39;99638.06;344731;28;1077;-66
2022/03/14 00:18:19;;;;;;;20.85;13.20;;;;;;;15.55;27.52;99638.25;345011;28;1103;-66
2022/03/14 00:18:34;;;;;;;20.67;13.50;;;;;;;15.53;27.68;99634.88;342266;28;945;-66
2022/03/14 00:18:48;;;;;;;20.35;13.18;;;;;;;15.61;27.48;99641.47;343419;28;1059;-67
2022/03/14 00:19:00;;;;;;;20.98;13.35;;;;;;;15.65;27.40;99635.97;343543;28;1213;-66
2022/03/14 00:19:14;;;;;;;21.25;13.45;;;;;;;15.65;27.38;99637.75;343859;28;1279;-66
2022/03/14 00:19:26;;;;;;;20.45;13.23;;;;;;;15.72;27.44;99636.50;343250;28;1355;-66
2022/03/14 00:19:40;;;;;;;21.90;13.23;;;;;;;15.76;27.28;99635.44;341053;29;1096;-66
2022/03/14 00:19:54;;;;;;;23.23;13.82;;;;;;;15.72;27.99;99639.13;340809;29;1250;-66
2022/03/14 00:20:09;;;;;;;22.60;14.38;;;;;;;15.53;27.46;99640.09;340692;29;1170;-66
2022/03/14 00:20:21;;;;;;;23.30;14.32;;;;;;;15.47;27.82;99640.41;339444;29;1317;-66
2022/03/14 00:20:33;;;;;;;23.48;13.98;;;;;;;15.50;27.93;99642.88;340816;29;1294;-66
2022/03/14 00:20:46;;;;;;;23.05;13.73;;;;;;;15.49;27.92;99643.81;340652;29;1213;-66
2022/03/14 00:20:58;;;;;;;23.55;13.93;;;;;;;15.49;27.79;99649.06;340745;29;1079;-66
2022/03/14 00:21:13;;;;;;;26.17;14.52;;;;;;;15.55;27.87;99648.72;340851;29;1294;-66
2022/03/14 00:21:26;;;;;;;25.67;14.02;;;;;;;15.47;27.95;99650.88;339871;29;1962;-66
2022/03/14 00:21:39;;;;;;;22.77;13.82;;;;;;;15.52;27.94;99646.25;341102;28;1362;-66
2022/03/14 00:21:51;;;;;;;22.75;14.10;;;;;;;15.50;27.80;99645.50;343508;28;1329;-66
2022/03/14 00:22:04;;;;;;;22.10;14.38;;;;;;;15.57;27.76;99652.13;343496;28;1633;-66
2022/03/14 00:22:20;;;;;;;22.85;14.55;;;;;;;15.60;27.61;99645.84;343554;28;1335;-66
2022/03/14 00:22:32;;;;;;;23.35;14.50;;;;;;;15.54;27.71;99646.19;342056;28;1288;-66
2022/03/14 00:22:46;;;;;;;23.98;14.52;;;;;;;15.60;27.46;99645.03;342146;28;1110;-66
2022/03/14 00:22:59;;;;;;;23.30;14.55;;;;;;;15.55;27.59;99645.25;342187;28;1082;-66
2022/03/14 00:23:12;;;;;;;22.52;14.30;;;;;;;15.57;27.75;99646.00;342825;28;1562;-66
2022/03/14 00:23:25;;;;;;;23.35;14.43;;;;;;;15.56;27.69;99649.56;343626;28;2012;-66
2022/03/14 00:23:37;;;;;;;22.55;14.40;;;;;;;15.54;27.72;99649.66;343557;28;1063;-66
2022/03/14 00:23:51;;;;;;;22.20;14.48;;;;;;;15.55;27.59;99658.34;343410;28;1083;-66
2022/03/14 00:24:04;;;;;;;21.55;13.98;;;;;;;15.56;27.58;99650.41;342307;28;1032;-66
2022/03/14 00:24:16;;;;;;;22.17;14.25;;;;;;;15.60;27.85;99655.50;342044;28;1371;-66
2022/03/14 00:24:28;;;;;;;23.77;15.30;;;;;;;15.63;27.45;99655.31;342367;28;1343;-66
2022/03/14 00:24:41;;;;;;;25.13;15.18;;;;;;;15.74;27.46;99653.84;341951;28;1149;-66
2022/03/14 00:24:54;;;;;;;25.02;14.48;;;;;;;15.73;27.38;99656.56;342392;28;1186;-66
2022/03/14 00:25:07;;;;;;;25.38;14.60;;;;;;;15.86;27.15;99654.97;342527;28;1102;-66
2022/03/14 00:25:19;;;;;;;22.45;14.30;;;;;;;15.85;26.99;99650.63;342496;28;1220;-66
2022/03/14 00:25:32;;;;;;;23.40;14.57;;;;;;;15.91;27.22;99655.53;342607;28;1039;-66
2022/03/14 00:25:44;;;;;;;23.08;14.80;;;;;;;15.90;27.34;99650.41;342475;28;1235;-66
2022/03/14 00:25:56;;;;;;;23.45;14.90;;;;;;;15.91;27.27;99650.31;343290;28;1572;-66
2022/03/14 00:26:08;;;;;;;23.92;14.60;;;;;;;15.82;27.27;99656.06;343416;28;1252;-66
2022/03/14 00:26:22;;;;;;;23.52;14.45;;;;;;;15.83;27.36;99660.38;343532;28;1071;-66
2022/03/14 00:26:34;;;;;;;23.88;14.77;;;;;;;15.78;27.18;99657.16;342382;28;1098;-66
2022/03/14 00:26:46;;;;;;;24.25;14.70;;;;;;;15.74;27.31;99658.25;342240;28;1091;-66
2022/03/14 00:26:59;;;;;;;23.77;14.57;;;;;;;15.76;27.36;99656.41;342298;28;1071;-66
2022/03/14 00:27:11;;;;;;;23.67;14.90;;;;;;;15.85;27.42;99661.13;342364;28;2005;-66
2022/03/14 00:27:23;;;;;;;24.40;15.15;;;;;;;15.85;27.50;99655.88;344569;28;1218;-66
2022/03/14 00:27:36;;;;;;;25.20;15.25;;;;;;;15.90;27.39;99659.13;343458;28;1841;-66
2022/03/14 00:27:48;;;;;;;26.08;15.30;;;;;;;15.94;27.21;99665.88;343528;28;1153;-66
2022/03/14 00:28:06;;;;;;;25.02;14.80;;;;;;;16.01;27.24;99665.53;343516;28;1221;-66
2022/03/14 00:28:18;;;;;;;25.70;15.15;;;;;;;16.05;27.14;99662.66;343706;28;1027;-66
2022/03/14 00:28:30;;;;;;;26.80;15.68;;;;;;;16.07;27.15;99659.97;343518;28;1294;-66
2022/03/14 00:28:42;;;;;;;26.52;15.52;;;;;;;16.01;27.20;99660.31;343832;28;1477;-66
2022/03/14 00:28:57;;;;;;;24.55;14.98;;;;;;;16.05;26.98;99661.81;343577;28;1017;-66
2022/03/14 00:29:09;;;;;;;22.83;15.25;;;;;;;15.97;27.02;99670.94;343274;28;1896;-66
2022/03/14 00:29:21;;;;;;;24.75;15.98;;;;;;;16.06;26.83;99666.16;343675;28;1217;-66
2022/03/14 00:29:33;;;;;;;24.48;15.95;;;;;;;16.03;26.87;99669.75;343407;28;1445;-66
2022/03/14 00:29:46;;;;;;;23.67;15.05;;;;;;;15.98;26.74;99669.19;342186;28;1066;-66
2022/03/14 00:30:07;;;;;;;23.20;14.48;;;;;;;15.93;26.88;99669.41;342486;28;1171;-66
2022/03/14 00:30:20;;;;;;;24.00;15.07;;;;;;;16.04;26.70;99678.50;342008;28;1084;-66
2022/03/14 00:30:32;;;;;;;23.60;14.95;;;;;;;15.96;26.71;99674.50;342614;28;1038;-66
2022/03/14 00:30:45;;;;;;;22.40;14.18;;;;;;;16.03;26.76;99675.00;342496;28;1285;-66
2022/03/14 00:30:57;;;;;;;22.15;13.95;;;;;;;16.09;26.61;99679.06;342921;28;1512;-66
2022/03/14 00:31:10;;;;;;;25.23;13.90;;;;;;;16.07;26.76;99680.94;339530;28;2824;-66
2022/03/14 00:31:22;;;;;;;25.70;14.05;;;;;;;15.95;26.90;99677.19;342462;28;3110;-66
2022/03/14 00:31:35;;;;;;;25.73;14.55;;;;;;;16.02;26.89;99688.19;342283;28;1325;-66
2022/03/14 00:31:47;;;;;;;23.30;14.55;;;;;;;16.09;26.84;99685.16;340754;29;3220;-66
2022/03/14 00:32:00;;;;;;;23.30;14.43;;;;;;;16.18;26.80;99681.19;340934;29;1082;-66
2022/03/14 00:32:13;;;;;;;22.25;14.07;;;;;;;16.12;26.55;99684.16;340954;29;1028;-66
2022/03/14 00:32:25;;;;;;;23.30;13.95;;;;;;;16.18;26.51;99675.97;341308;28;1332;-66
2022/03/14 00:32:39;;;;;;;22.77;13.40;;;;;;;16.25;26.47;99685.16;341152;29;1993;-66
2022/03/14 00:32:52;;;;;;;20.85;12.85;;;;;;;16.31;26.45;99684.81;340328;28;1487;-66
2022/03/14 00:33:04;;;;;;;21.05;12.82;;;;;;;16.29;26.60;99678.81;340415;29;1614;-66
2022/03/14 00:33:16;;;;;;;21.52;12.88;;;;;;;16.02;26.73;99689.06;340750;29;1055;-66
2022/03/14 00:33:28;;;;;;;22.27;13.27;;;;;;;16.15;26.56;99689.22;340751;29;1410;-66
2022/03/14 00:33:40;;;;;;;24.48;14.05;;;;;;;16.30;26.43;99682.31;339514;29;1112;-66
2022/03/14 00:33:52;;;;;;;25.08;14.43;;;;;;;16.33;26.53;99685.56;340266;29;1044;-66
2022/03/14 00:34:04;;;;;;;23.23;14.27;;;;;;;16.33;26.54;99682.13;341952;28;1277;-66
2022/03/14 00:34:16;;;;;;;23.27;13.95;;;;;;;16.43;26.26;99690.31;342620;28;1055;-66
2022/03/14 00:34:28;;;;;;;23.02;13.52;;;;;;;16.44;25.93;99689.38;343194;28;1334;-66
2022/03/14 00:34:40;;;;;;;23.52;13.43;;;;;;;16.51;26.19;99690.72;343592;28;1286;-66
2022/03/14 00:34:52;;;;;;;21.75;12.90;;;;;;;16.58;25.95;99676.34;344018;28;767;-66
2022/03/14 00:35:07;;;;;;;22.15;13.13;;;;;;;16.65;25.90;99682.91;343691;28;1041;-66
2022/03/14 00:35:25;;;;;;;21.38;13.43;;;;;;;16.67;25.74;99686.31;343892;28;1058;-66
2022/03/14 00:35:37;;;;;;;20.20;12.60;;;;;;;16.58;25.71;99686.84;343785;28;1046;-66
2022/03/14 00:35:49;;;;;;;22.38;13.13;;;;;;;16.57;25.72;99695.63;343648;28;1047;-66
2022/03/14 00:36:02;;;;;;;22.88;13.55;;;;;;;16.54;25.83;99686.16;343432;28;1198;-66
2022/03/14 00:36:14;;;;;;;22.75;13.43;;;;;;;16.49;25.81;99687.34;343591;28;1042;-66
2022/03/14 00:36:27;;;;;;;20.58;12.63;;;;;;;16.34;26.03;99687.28;343578;28;1235;-66
2022/03/14 00:36:41;;;;;;;23.67;13.13;;;;;;;16.32;26.08;99686.53;343630;28;1075;-66
2022/03/14 00:36:55;;;;;;;26.10;13.52;;;;;;;16.43;26.06;99690.31;343515;28;872;-66
2022/03/14 00:37:08;;;;;;;23.88;13.20;;;;;;;16.26;26.38;99686.88;343707;28;1596;-66
2022/03/14 00:37:20;;;;;;;20.77;12.77;;;;;;;16.43;26.16;99690.31;344911;28;1043;-66
2022/03/14 00:37:33;;;;;;;19.63;12.93;;;;;;;16.37;26.15;99684.47;342237;28;1578;-66
2022/03/14 00:37:45;;;;;;;22.88;13.30;;;;;;;16.32;26.15;99686.53;343586;28;1264;-66
2022/03/14 00:37:57;;;;;;;23.48;13.30;;;;;;;16.32;25.57;99696.19;343438;28;1052;-66
2022/03/14 00:38:09;;;;;;;22.52;13.48;;;;;;;16.42;26.04;99686.84;343385;28;1043;-66
2022/03/14 00:38:22;;;;;;;22.02;13.45;;;;;;;16.43;25.80;99690.31;343294;28;1348;-66
2022/03/14 00:38:38;;;;;;;23.45;13.50;;;;;;;16.51;25.89;99698.59;343993;28;729;-66
2022/03/14 00:38:50;;;;;;;23.52;13.50;;;;;;;16.58;25.63;99697.34;343503;28;1076;-66
2022/03/14 00:39:02;;;;;;;21.25;12.95;;;;;;;16.69;25.77;99705.44;342720;28;1970;-66
2022/03/14 00:39:14;;;;;;;21.77;12.68;;;;;;;16.69;25.64;99694.94;343519;28;1075;-66
2022/03/14 00:39:27;;;;;;;22.58;12.70;;;;;;;16.51;25.99;99701.22;343170;28;1963;-66
2022/03/14 00:39:40;;;;;;;22.65;13.27;;;;;;;16.61;25.73;99697.16;343554;28;1181;-66
2022/03/14 00:39:53;;;;;;;23.35;13.85;;;;;;;16.66;25.86;99689.88;343510;28;1107;-66
2022/03/14 00:40:07;;;;;;;24.05;13.95;;;;;;;16.75;25.72;99689.31;343367;28;1132;-67
2022/03/14 00:40:19;;;;;;;23.75;13.77;;;;;;;16.62;26.14;99688.34;343318;28;1043;-66
2022/03/14 00:40:37;;;;;;;22.15;13.40;;;;;;;16.54;26.43;99690.53;343355;28;1876;-66
2022/03/14 00:40:50;;;;;;;21.33;13.32;;;;;;;16.46;26.83;99687.50;343662;28;1512;-66
2022/03/14 00:41:03;;;;;;;21.80;13.40;;;;;;;16.51;26.77;99690.72;342937;28;1260;-66
2022/03/14 00:41:16;;;;;;;22.77;13.52;;;;;;;16.53;26.64;99697.56;343701;28;1528;-66
2022/03/14 00:41:29;;;;;;;22.08;13.13;;;;;;;16.58;26.51;99697.34;343857;28;1136;-66
2022/03/14 00:41:41;;;;;;;22.10;13.57;;;;;;;16.62;26.15;99696.22;343975;28;1079;-66
2022/03/14 00:41:53;;;;;;;22.20;13.85;;;;;;;16.72;26.10;99691.28;343845;28;1058;-66
2022/03/14 00:42:06;;;;;;;21.05;14.07;;;;;;;16.63;25.91;99699.69;343853;28;1298;-66
2022/03/14 00:42:20;;;;;;;20.88;13.40;;;;;;;16.60;26.04;99695.47;343882;28;1102;-66
2022/03/14 00:42:32;;;;;;;21.75;13.15;;;;;;;16.59;26.18;99699.00;342695;28;955;-66
2022/03/14 00:42:44;;;;;;;21.88;13.40;;;;;;;16.70;25.97;99690.53;342676;28;1695;-66
2022/03/14 00:42:56;;;;;;;22.45;13.50;;;;;;;16.71;25.97;99693.06;345342;28;772;-66
2022/03/14 00:43:08;;;;;;;21.30;13.15;;;;;;;16.74;25.86;99690.28;345284;28;1044;-66
2022/03/14 00:43:23;;;;;;;21.38;12.85;;;;;;;16.62;26.05;99692.75;344946;28;1326;-66
2022/03/14 00:43:36;;;;;;;21.13;13.02;;;;;;;16.58;26.01;99697.34;342360;28;1278;-66
2022/03/14 00:43:48;;;;;;;20.50;13.27;;;;;;;16.64;25.92;99691.75;342147;28;1103;-66
2022/03/14 00:44:03;;;;;;;20.70;13.80;;;;;;;16.72;26.24;99694.78;342096;28;1246;-66
2022/03/14 00:44:16;;;;;;;21.85;14.15;;;;;;;16.71;26.08;99698.31;342224;28;1059;-66
2022/03/14 00:44:28;;;;;;;23.80;13.88;;;;;;;16.70;26.04;99701.88;343875;28;1757;-66
2022/03/14 00:44:41;;;;;;;23.50;13.85;;;;;;;16.64;25.94;99697.00;344983;28;1175;-66
2022/03/14 00:44:54;;;;;;;22.30;13.45;;;;;;;16.67;25.96;99704.66;344107;28;1175;-66
2022/03/14 00:45:07;;;;;;;23.10;14.02;;;;;;;16.76;25.95;99693.66;345036;28;1391;-66
2022/03/14 00:45:24;;;;;;;23.75;15.02;;;;;;;16.81;25.69;99700.41;342261;28;1698;-66
2022/03/14 00:45:36;;;;;;;22.70;13.77;;;;;;;16.87;25.82;99697.47;342269;28;1122;-66
2022/03/14 00:45:48;;;;;;;22.08;13.35;;;;;;;16.89;25.79;99700.84;341466;28;1525;-66
2022/03/14 00:46:01;;;;;;;22.90;13.30;;;;;;;16.89;25.72;99701.69;342101;28;1182;-66
2022/03/14 00:46:16;;;;;;;22.67;13.35;;;;;;;16.77;25.83;99695.34;342278;28;1063;-66
2022/03/14 00:46:31;;;;;;;22.75;13.35;;;;;;;16.78;25.91;99697.03;341176;28;1278;-66
2022/03/14 00:46:44;;;;;;;23.38;13.50;;;;;;;16.70;25.90;99707.13;342205;28;1019;-66
2022/03/14 00:46:56;;;;;;;25.00;13.88;;;;;;;16.69;25.95;99700.19;341996;28;1040;-66
2022/03/14 00:47:10;;;;;;;24.58;14.10;;;;;;;16.75;26.07;99699.81;342522;28;1405;-66
2022/03/14 00:47:22;;;;;;;23.25;13.70;;;;;;;16.77;25.68;99705.84;343304;28;1220;-66
2022/03/14 00:47:34;;;;;;;20.92;13.32;;;;;;;16.80;25.77;99703.97;343517;28;1063;-66
2022/03/14 00:47:46;;;;;;;20.13;13.05;;;;;;;16.78;25.69;99704.91;342423;28;1193;-66
2022/03/14 00:47:58;;;;;;;19.85;13.27;;;;;;;16.81;25.75;99706.53;343691;28;1851;-66
2022/03/14 00:48:10;;;;;;;20.27;13.27;;;;;;;16.85;25.50;99708.06;344909;28;1311;-66
2022/03/14 00:48:22;;;;;;;22.50;13.40;;;;;;;16.86;25.69;99706.28;341771;28;2846;-66
2022/03/14 00:48:36;;;;;;;22.80;13.18;;;;;;;16.80;25.70;99706.59;342851;28;3148;-66
2022/03/14 00:48:48;;;;;;;23.05;13.48;;;;;;;16.78;25.81;99710.16;343586;28;1340;-66
2022/03/14 00:49:00;;;;;;;23.27;13.98;;;;;;;16.76;25.73;99706.78;343163;28;3889;-66
2022/03/14 00:49:12;;;;;;;24.38;14.02;;;;;;;16.78;25.77;99712.78;343552;28;1325;-66
2022/03/14 00:49:24;;;;;;;25.40;13.95;;;;;;;16.82;25.59;99710.88;342711;28;1348;-66
2022/03/14 00:49:36;;;;;;;23.92;13.63;;;;;;;16.86;25.84;99711.53;342652;28;776;-66
2022/03/14 00:49:50;;;;;;;20.15;13.07;;;;;;;16.92;25.55;99713.78;342370;28;1235;-66
2022/03/14 00:50:03;;;;;;;20.05;13.15;;;;;;;16.91;26.04;99714.75;342157;28;1134;-66
2022/03/14 00:50:15;;;;;;;23.75;13.25;;;;;;;16.95;25.77;99713.63;340941;29;1091;-66
2022/03/14 00:50:27;;;;;;;24.30;12.82;;;;;;;16.99;25.85;99712.50;341358;28;3117;-66
2022/03/14 00:50:39;;;;;;;22.00;12.85;;;;;;;17.02;26.14;99712.31;342393;28;1015;-66
2022/03/14 00:50:52;;;;;;;20.40;12.90;;;;;;;17.06;25.77;99713.81;342255;28;1272;-66
2022/03/14 00:51:05;;;;;;;21.15;13.52;;;;;;;17.04;26.42;99718.31;340635;29;1090;-66
2022/03/14 00:51:17;;;;;;;21.95;13.13;;;;;;;17.10;26.12;99715.38;341454;28;1080;-66
2022/03/14 00:51:30;;;;;;;24.88;13.05;;;;;;;17.14;25.30;99710.75;342198;28;1039;-66
2022/03/14 00:51:42;;;;;;;24.38;13.40;;;;;;;17.17;25.54;99711.44;341955;28;1247;-66
2022/03/14 00:51:54;;;;;;;20.30;13.35;;;;;;;17.17;25.65;99716.69;343884;28;1161;-66
2022/03/14 00:52:06;;;;;;;19.92;12.93;;;;;;;17.21;25.65;99713.88;344400;28;1103;-66
2022/03/14 00:52:18;;;;;;;19.63;12.98;;;;;;;17.22;25.52;99713.78;345223;28;987;-66
2022/03/14 00:52:30;;;;;;;20.85;13.65;;;;;;;17.28;25.55;99716.03;343233;28;1309;-66
2022/03/14 00:52:42;;;;;;;21.27;13.65;;;;;;;17.32;25.71;99719.34;343403;28;1157;-66
2022/03/14 00:52:54;;;;;;;21.85;13.80;;;;;;;17.31;25.83;99718.50;342918;28;1681;-66
2022/03/14 00:53:07;;;;;;;22.35;13.68;;;;;;;17.32;25.50;99716.72;341341;28;1004;-66
2022/03/14 00:53:20;;;;;;;21.98;13.40;;;;;;;17.38;25.51;99713.72;342399;28;1190;-66
2022/03/14 00:53:32;;;;;;;21.98;13.48;;;;;;;17.39;25.50;99718.03;343326;28;1027;-66
2022/03/14 00:53:44;;;;;;;21.42;13.48;;;;;;;17.38;25.07;99716.34;343546;28;1331;-66
2022/03/14 00:53:56;;;;;;;22.60;13.82;;;;;;;17.26;25.11;99719.69;343453;28;1322;-66
2022/03/14 00:54:09;;;;;;;22.90;13.85;;;;;;;17.17;25.05;99716.69;343620;28;1111;-66
2022/03/14 00:54:21;;;;;;;21.88;14.07;;;;;;;17.30;24.92;99726.47;343451;28;1455;-66
2022/03/14 00:54:34;;;;;;;21.17;13.90;;;;;;;17.30;24.83;99714.16;342233;28;1444;-66
2022/03/14 00:54:46;;;;;;;22.48;14.40;;;;;;;17.28;24.86;99715.19;342260;28;1260;-66
2022/03/14 00:54:58;;;;;;;24.25;14.30;;;;;;;17.27;24.97;99722.25;343482;28;1510;-66
2022/03/14 00:55:10;;;;;;;23.92;13.80;;;;;;;17.12;25.41;99724.00;344923;28;1019;-66
2022/03/14 00:55:22;;;;;;;21.80;13.80;;;;;;;17.08;25.44;99714.63;343487;28;1291;-66
2022/03/14 00:55:34;;;;;;;20.73;13.98;;;;;;;17.04;25.50;99720.13;343782;28;1074;-66
2022/03/14 00:55:46;;;;;;;21.30;14.38;;;;;;;16.95;25.58;99713.63;343800;28;1098;-66
2022/03/14 00:55:59;;;;;;;22.35;14.45;;;;;;;17.00;25.52;99716.81;344956;28;1083;-66
2022/03/14 00:56:12;;;;;;;23.80;13.82;;;;;;;17.12;25.49;99723.13;344681;28;1054;-66
2022/03/14 00:56:24;;;;;;;23.48;13.40;;;;;;;17.06;25.67;99724.34;344669;28;1345;-65
2022/03/14 00:56:36;;;;;;;22.90;13.77;;;;;;;17.02;25.60;99717.56;345496;28;1312;-66
2022/03/14 00:56:48;;;;;;;22.70;14.13;;;;;;;16.95;25.47;99714.47;345527;28;1907;-66
2022/03/14 00:57:00;;;;;;;22.10;14.15;;;;;;;16.96;25.47;99717.94;344597;28;2092;-66
2022/03/14 00:57:14;;;;;;;21.30;13.68;;;;;;;17.04;25.40;99720.13;343744;28;1066;-66
2022/03/14 00:57:27;;;;;;;22.30;13.32;;;;;;;17.08;25.29;99724.25;342828;28;1827;-66
2022/03/14 00:57:39;;;;;;;22.80;13.80;;;;;;;17.11;25.23;99722.28;344924;28;1067;-66
2022/03/14 00:57:51;;;;;;;22.45;14.02;;;;;;;17.06;25.00;99724.34;345293;28;756;-66
2022/03/14 00:58:03;;;;;;;21.88;13.82;;;;;;;17.11;24.91;99721.47;343581;28;1069;-66
2022/03/14 00:58:16;;;;;;;22.52;13.80;;;;;;;17.01;24.81;99726.41;342376;28;1625;-66
2022/03/14 00:58:29;;;;;;;22.67;13.77;;;;;;;17.01;24.93;99721.16;342657;28;1314;-66
2022/03/14 00:58:41;;;;;;;23.90;13.93;;;;;;;17.07;24.88;99720.78;342604;28;2071;-66
2022/03/14 00:58:54;;;;;;;22.30;13.77;;;;;;;17.09;24.89;99721.53;341812;28;1776;-66
2022/03/14 00:59:06;;;;;;;21.77;13.70;;;;;;;17.12;24.94;99724.00;342351;28;1991;-66
2022/03/14 00:59:19;;;;;;;21.00;13.55;;;;;;;17.13;24.91;99720.44;343482;28;1709;-66
2022/03/14 00:59:31;;;;;;;20.65;13.75;;;;;;;17.12;24.86;99723.13;342362;28;1857;-66
2022/03/14 00:59:43;;;;;;;20.50;13.77;;;;;;;17.17;24.89;99721.94;344720;28;1047;-66
2022/03/14 00:59:55;;;;;;;20.52;13.43;;;;;;;17.17;25.03;99724.56;344402;28;1296;-66
2022/03/14 01:00:08;;;;;;;20.98;13.23;;;;;;;17.12;24.84;99724.00;343389;28;2103;-66
2022/03/14 01:00:20;;;;;;;21.23;13.38;;;;;;;17.17;24.69;99721.94;344008;28;1850;-66
2022/03/14 01:00:32;;;;;;;20.73;13.65;;;;;;;17.16;24.79;99728.13;343451;28;1100;-66
2022/03/14 01:00:45;;;;;;;22.20;14.07;;;;;;;17.08;24.86;99730.38;342574;28;1926;-66
2022/03/14 01:00:57;;;;;;;22.25;13.05;;;;;;;17.26;24.76;99723.16;343579;28;1178;-66
2022/03/14 01:01:10;;;;;;;21.42;12.75;;;;;;;17.25;24.62;99731.16;342008;28;2113;-66
2022/03/14 01:01:22;;;;;;;20.80;12.88;;;;;;;17.33;24.50;99727.13;341874;28;1917;-66
2022/03/14 01:01:34;;;;;;;20.92;13.00;;;;;;;17.32;24.56;99729.84;342973;28;1073;-66
2022/03/14 01:01:47;;;;;;;21.15;13.30;;;;;;;17.35;24.40;99730.50;343835;28;1102;-66
2022/03/14 01:01:59;;;;;;;20.98;13.13;;;;;;;17.35;24.62;99729.69;343749;28;1102;-66
2022/03/14 01:02:11;;;;;;;21.48;12.95;;;;;;;17.39;24.48;99736.44;342032;28;2117;-66